Berezino, Belarus

5:21 PM MSK on February 11, 2016 (GMT +0300)
Minsk | | Change Station
CLOSE
Current Station
Airport
Location: Minsk,
Elevation: 748 ft
Nearby Weather Stations

Elev 748 ft 53.86 °N, 27.54 °E | Updated 21 minutes ago

Snow Showers
Showers Snow Rain Mist
32 °F
Feels Like 21 °F
N
16
Wind Variable Wind from ESE
Gusts 22 mph

Today
High -- | Low -- °F
--% Chance of Precip.
Yesterday
High -- | Low -- °F
Precip. -- in
Pressure 29.33 in
Visibility 0.9 miles
Clouds Overcast 500 ft
Windchill 21 °F
Dew Point 30 °F
Humidity 93%
Rainfall 0.00 in
Snow Depth Not available.
8:33 AM 6:04 PM
Waxing Crescent, 12% visible
METAR UMMM 111400Z 11007G10MPS 1500 SHSNRA BR OVC005CB 00/M01 Q0993 NOSIG RMK QFE725 QBB150
Pressure 29.33 in
Visibility 0.9 miles
Clouds Overcast 500 ft
Windchill 21 °F
Dew Point 30 °F
Humidity 93%
Rainfall 0.00 in
Snow Depth Not available.
8:33 AM 6:04 PM
Waxing Crescent, 12% visible
METAR UMMM 111400Z 11007G10MPS 1500 SHSNRA BR OVC005CB 00/M01 Q0993 NOSIG RMK QFE725 QBB150

10-Day Weather Forecast

Almanac

Astronomy

Feb. 11, 2016 Rise Set
Actual Time
Civil Twilight
Nautical Twilight
Astronomical Twilight
Moon
Length of Visible Light
Length of Day
Tomorrow will be .
, % of the Moon is Illuminated

Today's Extremes

Country Highs Country Lows

Community

WunderPhotos

Upload Photos

1,892,048 photos uploaded!

WunderBlog® & News

Nearby

Air Quality

  Air Quality AQ Index Pollutant
Not available.

Snow Depth

Station Depth Elevation

Earthquake Activity

City Distance Mag. Time & Date
Minimum magnitude displayed is 2.5.

Coastal Water Temperatures

Place Temperature

Stations

Nearby Weather Stations

Station Location Temp. Windchill Dew Point Humidity Wind Precip. Elev Updated Type